createdAt,value
2022-11-10T00:00:27.139Z,35.97
2022-11-10T00:02:18.871Z,33.33
2022-11-10T00:04:10.952Z,32.95
2022-11-10T00:06:05.282Z,29.25
2022-11-10T00:07:56.980Z,32.88
2022-11-10T00:09:48.874Z,31.92
2022-11-10T00:11:40.969Z,30.42
2022-11-10T00:13:35.372Z,31.35
2022-11-10T00:15:45.387Z,29.92
2022-11-10T00:17:36.566Z,28.70
2022-11-10T00:19:29.048Z,28.90
2022-11-10T00:21:22.693Z,28.15
2022-11-10T00:23:14.972Z,29.48
2022-11-10T00:25:07.575Z,26.23
2022-11-10T00:27:00.178Z,31.13
2022-11-10T00:28:51.724Z,32.20
2022-11-10T00:30:46.821Z,31.67
2022-11-10T00:32:38.994Z,27.75
2022-11-10T00:34:30.875Z,32.95
2022-11-10T00:36:23.864Z,27.80
2022-11-10T00:38:15.761Z,35.22
2022-11-10T00:40:08.223Z,36.75
2022-11-10T00:42:00.284Z,37.58
2022-11-10T00:43:52.614Z,34.47
2022-11-10T00:45:45.180Z,33.03
2022-11-10T00:47:36.703Z,36.85
2022-11-10T00:49:28.951Z,32.33
2022-11-10T00:51:24.843Z,34.17
2022-11-10T00:53:16.881Z,37.42
2022-11-10T00:55:09.605Z,31.13
2022-11-10T00:57:01.024Z,34.30
2022-11-10T00:58:53.063Z,38.10
2022-11-10T01:00:45.637Z,29.83
2022-11-10T01:02:37.420Z,33.40
2022-11-10T01:04:29.327Z,33.08
2022-11-10T01:06:22.943Z,34.03
2022-11-10T01:08:16.110Z,34.45
2022-11-10T01:10:08.595Z,30.30
2022-11-10T01:12:00.838Z,31.98
2022-11-10T01:13:54.025Z,37.15
2022-11-10T01:15:46.169Z,37.63
2022-11-10T01:17:38.146Z,35.72
2022-11-10T01:19:31.077Z,32.28
2022-11-10T01:21:24.183Z,39.85
2022-11-10T01:23:17.889Z,31.63
2022-11-10T01:25:10.497Z,36.60
2022-11-10T01:27:03.022Z,36.30
2022-11-10T01:28:55.959Z,29.90
2022-11-10T01:30:47.681Z,37.38
2022-11-10T01:32:39.292Z,33.67
2022-11-10T01:34:31.076Z,34.35
2022-11-10T01:36:22.533Z,29.27
2022-11-10T01:38:14.621Z,38.10
2022-11-10T01:40:09.537Z,35.65
2022-11-10T01:42:01.411Z,37.20
2022-11-10T01:43:53.020Z,31.40
2022-11-10T01:45:48.267Z,34.40
2022-11-10T01:47:39.868Z,34.95
2022-11-10T01:49:33.765Z,31.10
2022-11-10T01:51:29.035Z,22.73
2022-11-10T01:53:24.955Z,36.08
2022-11-10T01:55:19.104Z,32.75
2022-11-10T01:57:14.063Z,30.02
2022-11-10T01:59:18.883Z,30.77
2022-11-10T02:01:11.506Z,34.90
2022-11-10T02:03:07.011Z,29.33
2022-11-10T02:05:00.885Z,32.95
2022-11-10T02:06:53.394Z,29.58
2022-11-10T02:08:46.224Z,33.05
2022-11-10T02:10:39.575Z,28.48
2022-11-10T02:12:38.059Z,33.70
2022-11-10T02:14:30.825Z,29.40
2022-11-10T02:16:23.107Z,33.30
2022-11-10T02:18:14.852Z,31.83
2022-11-10T02:20:10.717Z,42.03
2022-11-10T02:22:03.773Z,30.00
2022-11-10T02:23:55.898Z,32.28
2022-11-10T02:25:48.009Z,33.92
2022-11-10T02:27:39.820Z,29.05
2022-11-10T02:29:31.588Z,32.78
2022-11-10T02:31:23.934Z,29.02
2022-11-10T02:33:17.894Z,36.35
2022-11-10T02:35:10.254Z,32.28
2022-11-10T02:37:04.067Z,33.00
2022-11-10T02:38:55.976Z,27.58
2022-11-10T02:40:47.644Z,31.27
2022-11-10T02:42:39.815Z,31.58
2022-11-10T02:44:31.337Z,32.28
2022-11-10T02:46:23.540Z,30.15
2022-11-10T02:48:16.488Z,32.95
2022-11-10T02:50:09.216Z,28.08
2022-11-10T02:52:01.104Z,32.28
2022-11-10T02:53:54.433Z,33.45
2022-11-10T02:55:46.639Z,29.63
2022-11-10T02:57:39.163Z,30.33
2022-11-10T02:59:31.644Z,32.25
2022-11-10T03:01:23.352Z,32.80
2022-11-10T03:03:15.593Z,34.25
2022-11-10T03:05:07.600Z,32.05
2022-11-10T03:06:59.511Z,28.70
2022-11-10T03:08:53.143Z,33.53
2022-11-10T03:10:45.674Z,44.30
2022-11-10T03:12:37.860Z,41.58
2022-11-10T03:14:29.393Z,33.42
2022-11-10T03:16:21.431Z,33.50
2022-11-10T03:18:13.345Z,32.92
2022-11-10T03:20:06.011Z,36.60
2022-11-10T03:21:58.673Z,40.80
2022-11-10T03:23:50.383Z,39.35
2022-11-10T03:25:43.732Z,40.13
2022-11-10T03:27:35.850Z,40.75
2022-11-10T03:29:27.647Z,35.85
2022-11-10T03:31:19.644Z,42.88
2022-11-10T03:33:11.334Z,40.03
2022-11-10T03:35:03.259Z,32.53
2022-11-10T03:36:55.072Z,39.05
2022-11-10T03:38:47.478Z,34.10
2022-11-10T03:41:11.968Z,43.22
2022-11-10T03:42:52.926Z,50.47
2022-11-10T03:44:44.503Z,82.20
2022-11-10T03:46:36.839Z,101.70
2022-11-10T03:48:28.532Z,78.93
2022-11-10T03:50:20.841Z,52.65
2022-11-10T03:52:12.381Z,45.97
2022-11-10T03:54:04.496Z,41.30
2022-11-10T03:55:56.438Z,45.70
2022-11-10T03:57:48.325Z,54.60
2022-11-10T03:59:41.623Z,61.97
2022-11-10T04:01:33.626Z,74.15
2022-11-10T04:03:26.151Z,59.20
2022-11-10T04:05:35.624Z,73.95
2022-11-10T04:07:44.906Z,99.15
2022-11-10T04:09:36.547Z,85.07
2022-11-10T04:11:46.828Z,75.55
2022-11-10T04:13:56.420Z,74.68
2022-11-10T04:15:49.557Z,51.47
2022-11-10T04:17:41.806Z,52.88
2022-11-10T04:19:33.675Z,58.28
2022-11-10T04:21:25.380Z,59.97
2022-11-10T04:23:31.123Z,75.22
2022-11-10T04:25:23.512Z,74.15
2022-11-10T04:27:14.105Z,169.70
2022-11-10T04:29:08.771Z,95.03
2022-11-10T04:31:02.327Z,85.60
2022-11-10T04:32:55.179Z,87.40
2022-11-10T04:34:47.002Z,63.88
2022-11-10T04:36:41.615Z,73.45
2022-11-10T04:38:33.310Z,65.82
2022-11-10T04:40:25.102Z,78.15
2022-11-10T04:42:16.744Z,71.57
2022-11-10T04:44:08.974Z,120.72
2022-11-10T04:46:02.644Z,169.10
2022-11-10T04:47:54.667Z,68.22
2022-11-10T04:49:46.231Z,72.00
2022-11-10T04:51:40.271Z,74.30
2022-11-10T04:53:31.932Z,63.42
2022-11-10T04:55:23.954Z,61.83
2022-11-10T04:57:15.588Z,75.85
2022-11-10T04:59:07.570Z,64.28
2022-11-10T05:00:59.106Z,83.35
2022-11-10T05:02:52.239Z,79.70
2022-11-10T05:04:44.525Z,65.38
2022-11-10T05:06:36.399Z,74.45
2022-11-10T05:08:28.254Z,76.75
2022-11-10T05:10:20.719Z,71.63
2022-11-10T05:12:12.369Z,78.13
2022-11-10T05:14:04.387Z,84.20
2022-11-10T05:15:56.269Z,76.43
2022-11-10T05:17:52.087Z,76.38
2022-11-10T05:19:43.745Z,86.38
2022-11-10T05:21:36.027Z,68.97
2022-11-10T05:23:39.568Z,78.78
2022-11-10T05:25:32.071Z,87.10
2022-11-10T05:27:24.042Z,78.72
2022-11-10T05:29:15.708Z,83.25
2022-11-10T05:31:07.807Z,72.63
2022-11-10T05:33:01.504Z,89.63
2022-11-10T05:34:53.309Z,86.05
2022-11-10T05:36:45.359Z,87.78
2022-11-10T05:38:42.143Z,89.88
2022-11-10T05:40:36.126Z,78.68
2022-11-10T05:42:27.927Z,78.75
2022-11-10T05:44:20.431Z,76.70
2022-11-10T05:46:11.925Z,80.18
2022-11-10T05:48:05.856Z,80.97
2022-11-10T05:49:57.527Z,81.57
2022-11-10T05:51:49.287Z,86.18
2022-11-10T05:53:41.029Z,86.60
2022-11-10T05:55:32.844Z,90.22
2022-11-10T05:57:24.443Z,81.35
2022-11-10T05:59:16.139Z,102.00
2022-11-10T06:01:08.050Z,136.20
2022-11-10T06:03:02.361Z,104.32
2022-11-10T06:04:55.973Z,112.55
2022-11-10T06:06:47.889Z,104.68
2022-11-10T06:08:39.536Z,88.97
2022-11-10T06:10:31.738Z,87.63
2022-11-10T06:12:25.105Z,111.55
2022-11-10T06:14:17.173Z,119.63
2022-11-10T06:16:09.241Z,99.93
2022-11-10T06:18:01.453Z,101.72
2022-11-10T06:19:53.118Z,103.90
2022-11-10T06:21:46.623Z,132.70
2022-11-10T06:23:38.247Z,96.70
2022-11-10T06:25:31.399Z,85.68
2022-11-10T06:27:23.066Z,81.88
2022-11-10T06:29:15.279Z,75.68
2022-11-10T06:31:06.883Z,92.40
2022-11-10T06:32:59.004Z,104.15
2022-11-10T06:34:50.742Z,97.30
2022-11-10T06:36:42.731Z,100.00
2022-11-10T06:38:36.011Z,93.53
2022-11-10T06:40:28.856Z,105.32
2022-11-10T06:42:20.670Z,85.97
2022-11-10T06:44:13.341Z,92.05
2022-11-10T06:46:05.115Z,87.35
2022-11-10T06:48:01.482Z,85.72
2022-11-10T06:49:54.882Z,99.00
2022-11-10T06:51:46.751Z,108.32
2022-11-10T06:53:39.873Z,68.47
2022-11-10T06:55:31.997Z,81.05
2022-11-10T06:57:23.742Z,92.72
2022-11-10T06:59:15.758Z,84.18
2022-11-10T07:01:07.515Z,94.70
2022-11-10T07:03:03.930Z,76.47
2022-11-10T07:04:55.279Z,71.28
2022-11-10T07:06:48.027Z,62.33
2022-11-10T07:08:41.408Z,67.97
2022-11-10T07:10:33.310Z,64.32
2022-11-10T07:12:25.308Z,72.22
2022-11-10T07:14:17.403Z,70.15
2022-11-10T07:16:09.395Z,66.20
2022-11-10T07:18:02.670Z,74.43
2022-11-10T07:19:54.696Z,73.18
2022-11-10T07:21:46.838Z,69.75
2022-11-10T07:23:38.647Z,63.47
2022-11-10T07:25:33.794Z,74.18
2022-11-10T07:27:25.505Z,93.90
2022-11-10T07:29:17.583Z,70.72
2022-11-10T07:31:09.515Z,71.72
2022-11-10T07:33:02.745Z,87.40
2022-11-10T07:34:54.542Z,91.15
2022-11-10T07:36:46.479Z,86.95
2022-11-10T07:38:37.980Z,88.60
2022-11-10T07:40:32.155Z,77.07
2022-11-10T07:42:23.904Z,76.80
2022-11-10T07:44:16.000Z,76.40
2022-11-10T07:46:07.789Z,66.93
2022-11-10T07:48:07.131Z,67.38
2022-11-10T07:50:05.415Z,80.82
2022-11-10T07:52:04.135Z,73.43
2022-11-10T07:53:55.960Z,65.55
2022-11-10T07:55:49.466Z,67.40
2022-11-10T07:57:41.432Z,71.10
2022-11-10T07:59:33.200Z,87.03
2022-11-10T08:01:25.037Z,67.10
2022-11-10T08:03:19.649Z,74.72
2022-11-10T08:05:11.912Z,68.38
2022-11-10T08:07:03.950Z,76.53
2022-11-10T08:08:55.902Z,71.60
2022-11-10T08:10:49.346Z,68.88
2022-11-10T08:12:41.038Z,71.30
2022-11-10T08:14:33.118Z,76.22
2022-11-10T08:16:25.211Z,71.53
2022-11-10T08:18:19.656Z,77.05
2022-11-10T08:20:12.103Z,73.15
2022-11-10T08:22:04.055Z,68.82
2022-11-10T08:23:56.176Z,83.22
2022-11-10T08:25:53.053Z,75.20
2022-11-10T08:27:44.616Z,70.55
2022-11-10T08:29:36.759Z,72.80
2022-11-10T08:31:28.966Z,62.50
2022-11-10T08:33:22.951Z,68.43
2022-11-10T08:35:15.229Z,68.40
2022-11-10T08:37:10.127Z,64.10
2022-11-10T08:39:02.092Z,63.95
2022-11-10T08:40:58.244Z,60.25
2022-11-10T08:42:49.833Z,62.78
2022-11-10T08:44:41.948Z,57.15
2022-11-10T08:46:33.463Z,53.83
2022-11-10T08:48:25.566Z,56.58
2022-11-10T08:50:17.671Z,51.35
2022-11-10T08:52:11.197Z,50.20
2022-11-10T08:54:02.865Z,48.20
2022-11-10T08:56:00.360Z,57.17
2022-11-10T08:57:52.189Z,57.17
2022-11-10T08:59:44.064Z,45.33
2022-11-10T09:01:35.836Z,54.58
2022-11-10T09:03:27.735Z,50.83
2022-11-10T09:05:19.621Z,48.17
2022-11-10T09:07:11.575Z,53.30
2022-11-10T09:09:03.353Z,50.97
2022-11-10T09:10:57.132Z,47.25
2022-11-10T09:12:49.164Z,44.47
2022-11-10T09:14:41.344Z,39.58
2022-11-10T09:16:33.028Z,37.88
2022-11-10T09:18:25.326Z,60.33
2022-11-10T09:20:17.382Z,44.95
2022-11-10T09:22:09.979Z,41.15
2022-11-10T09:24:02.195Z,38.90
2022-11-10T09:25:57.047Z,34.85
2022-11-10T09:27:49.535Z,33.15
2022-11-10T09:29:41.799Z,31.20
2022-11-10T09:31:33.235Z,29.40
2022-11-10T09:33:25.577Z,31.38
2022-11-10T09:35:18.044Z,31.23
2022-11-10T09:37:09.819Z,29.33
2022-11-10T09:39:01.730Z,27.92
2022-11-10T09:41:02.940Z,27.70
2022-11-10T09:42:57.526Z,29.98
2022-11-10T09:44:54.822Z,30.08
2022-11-10T09:46:50.636Z,29.27
2022-11-10T09:48:46.944Z,29.50
2022-11-10T09:50:43.269Z,30.45
2022-11-10T09:52:38.259Z,41.63
2022-11-10T09:54:38.334Z,24.88
2022-11-10T09:56:34.504Z,30.92
2022-11-10T09:58:33.185Z,30.98
2022-11-10T10:00:25.022Z,22.95
2022-11-10T10:02:29.840Z,32.58
2022-11-10T10:04:44.676Z,29.17
2022-11-10T10:07:10.226Z,29.63
2022-11-10T10:09:12.401Z,29.83
2022-11-10T10:11:19.953Z,32.28
2022-11-10T10:13:37.481Z,34.90
2022-11-10T10:15:38.442Z,28.55
2022-11-10T10:17:41.327Z,33.17
2022-11-10T10:19:42.457Z,30.38
2022-11-10T10:21:46.379Z,33.85
2022-11-10T10:25:55.572Z,26.60
2022-11-10T10:27:52.792Z,27.15
2022-11-10T10:29:49.319Z,32.13
2022-11-10T10:31:44.445Z,32.75
2022-11-10T10:33:36.117Z,30.30
2022-11-10T10:35:29.660Z,35.03
2022-11-10T10:37:25.641Z,34.20
2022-11-10T10:39:23.538Z,34.92
2022-11-10T10:41:23.966Z,32.45
2022-11-10T10:43:15.877Z,35.67
2022-11-10T10:45:18.246Z,35.85
2022-11-10T10:47:10.085Z,36.60
2022-11-10T10:49:28.157Z,36.20
2022-11-10T10:51:31.609Z,36.38
2022-11-10T10:53:24.423Z,26.83
2022-11-10T10:55:16.262Z,25.73
2022-11-10T10:57:22.422Z,28.52
2022-11-10T10:59:22.169Z,26.52
2022-11-10T11:01:27.188Z,31.98
2022-11-10T11:03:27.440Z,25.15
2022-11-10T11:05:20.849Z,21.70
2022-11-10T11:07:22.918Z,26.63
2022-11-10T11:09:20.116Z,29.08
2022-11-10T11:11:12.960Z,32.38
2022-11-10T11:13:16.021Z,30.58
2022-11-10T11:15:22.199Z,29.95
2022-11-10T11:17:20.168Z,20.52
2022-11-10T11:19:12.458Z,19.02
2022-11-10T11:21:14.979Z,16.58
2022-11-10T11:23:18.110Z,21.23
2022-11-10T11:25:19.933Z,23.02
2022-11-10T11:27:19.397Z,20.25
2022-11-10T11:29:26.497Z,19.25
2022-11-10T11:31:28.382Z,20.95
2022-11-10T11:33:32.084Z,23.85
2022-11-10T11:35:33.479Z,21.08
2022-11-10T11:37:34.086Z,19.45
2022-11-10T11:39:39.398Z,16.95
2022-11-10T11:41:40.450Z,21.58
2022-11-10T11:43:57.642Z,20.85
2022-11-10T11:45:58.818Z,21.10
2022-11-10T11:48:15.953Z,19.00
2022-11-10T11:50:24.237Z,20.98
2022-11-10T11:52:24.851Z,19.88
2022-11-10T11:54:29.045Z,22.08
2022-11-10T11:56:25.453Z,22.38
2022-11-10T11:58:33.779Z,20.98
2022-11-10T12:00:25.871Z,23.23
2022-11-10T12:02:45.565Z,18.05
2022-11-10T12:04:46.447Z,22.45
2022-11-10T12:06:56.047Z,22.33
2022-11-10T12:08:58.351Z,17.73
2022-11-10T12:11:01.014Z,18.02
2022-11-10T12:13:25.607Z,18.23
2022-11-10T12:15:29.983Z,16.67
2022-11-10T12:17:28.617Z,16.50
2022-11-10T12:19:30.353Z,20.98
2022-11-10T12:21:25.980Z,20.05
2022-11-10T12:23:28.810Z,17.85
2022-11-10T12:25:27.532Z,19.05
2022-11-10T12:27:25.276Z,17.70
2022-11-10T12:29:26.585Z,17.25
2022-11-10T12:31:22.453Z,17.33
2022-11-10T12:33:21.839Z,18.60
2022-11-10T12:35:19.242Z,16.98
2022-11-10T12:37:17.493Z,20.83
2022-11-10T12:39:19.892Z,23.85
2022-11-10T12:41:16.706Z,25.80
2022-11-10T12:43:19.162Z,28.75
2022-11-10T12:45:22.474Z,19.10
2022-11-10T12:47:20.324Z,24.52
2022-11-10T12:49:18.503Z,21.15
2022-11-10T12:51:21.775Z,17.60
2022-11-10T12:53:23.101Z,24.58
2022-11-10T12:55:16.931Z,18.30
2022-11-10T12:57:14.506Z,16.80
2022-11-10T12:59:24.915Z,18.17
2022-11-10T13:01:19.425Z,23.15
2022-11-10T13:03:17.077Z,19.90
2022-11-10T13:05:24.478Z,30.38
2022-11-10T13:07:25.720Z,22.33
2022-11-10T13:09:26.405Z,22.00
2022-11-10T13:11:29.088Z,20.92
2022-11-10T13:13:21.480Z,25.48
2022-11-10T13:15:52.381Z,23.85
2022-11-10T13:18:02.810Z,24.77
2022-11-10T13:19:58.990Z,24.13
2022-11-10T13:22:07.672Z,19.55
2022-11-10T13:24:23.036Z,21.00
2022-11-10T13:26:56.060Z,24.70
2022-11-10T13:29:00.446Z,23.35
2022-11-10T13:30:54.399Z,23.60
2022-11-10T13:32:46.474Z,42.38
2022-11-10T13:34:42.495Z,31.42
2022-11-10T13:36:43.354Z,25.45
2022-11-10T13:38:38.326Z,33.58
2022-11-10T13:40:34.177Z,25.30
2022-11-10T13:42:26.403Z,26.17
2022-11-10T13:44:28.892Z,25.13
2022-11-10T13:46:21.571Z,26.60
2022-11-10T13:48:27.772Z,24.67
2022-11-10T13:50:31.084Z,28.40
2022-11-10T13:52:30.728Z,26.13
2022-11-10T13:54:47.180Z,27.75
2022-11-10T13:57:00.103Z,22.13
2022-11-10T13:58:52.484Z,22.65
2022-11-10T14:00:51.040Z,29.10
2022-11-10T14:02:49.261Z,26.83
2022-11-10T14:04:43.981Z,31.48
2022-11-10T14:06:45.994Z,27.60
2022-11-10T14:08:47.735Z,27.02
2022-11-10T14:10:46.161Z,24.83
2022-11-10T14:12:44.355Z,26.63
2022-11-10T14:14:47.350Z,24.38
2022-11-10T14:16:42.874Z,29.17
2022-11-10T14:18:41.391Z,31.15
2022-11-10T14:20:41.715Z,31.52
2022-11-10T14:22:39.244Z,37.15
2022-11-10T14:24:37.291Z,33.95
2022-11-10T14:26:36.140Z,63.35
2022-11-10T14:28:29.035Z,62.47
2022-11-10T14:30:25.017Z,62.58
2022-11-10T14:32:21.703Z,52.63
2022-11-10T14:34:17.305Z,53.88
2022-11-10T14:36:09.880Z,50.30
2022-11-10T14:38:02.988Z,28.98
2022-11-10T14:39:56.842Z,31.42
2022-11-10T14:41:49.927Z,30.52
2022-11-10T14:43:41.995Z,25.52
2022-11-10T14:45:34.092Z,26.63
2022-11-10T14:47:31.420Z,29.25
2022-11-10T14:49:25.166Z,26.83
2022-11-10T14:51:19.351Z,26.42
2022-11-10T14:53:20.771Z,33.53
2022-11-10T14:55:18.381Z,26.42
2022-11-10T14:57:18.423Z,26.20
2022-11-10T14:59:15.125Z,29.35
2022-11-10T15:01:08.644Z,33.28
2022-11-10T15:03:03.312Z,38.17
2022-11-10T15:04:55.687Z,36.78
2022-11-10T15:06:50.325Z,37.42
2022-11-10T15:08:42.961Z,39.97
2022-11-10T15:10:46.729Z,31.70
2022-11-10T15:12:42.062Z,35.25
2022-11-10T15:14:39.613Z,33.45
2022-11-10T15:16:33.393Z,42.92
2022-11-10T15:18:29.473Z,32.40
2022-11-10T15:20:29.681Z,43.72
2022-11-10T15:22:29.822Z,46.42
2022-11-10T15:24:23.715Z,48.80
2022-11-10T15:26:22.195Z,44.70
2022-11-10T15:28:25.802Z,59.25
2022-11-10T15:30:24.144Z,39.63
2022-11-10T15:32:17.933Z,43.30
2022-11-10T15:34:40.038Z,36.42
2022-11-10T15:36:34.126Z,41.75
2022-11-10T15:38:29.952Z,55.20
2022-11-10T15:40:33.396Z,75.63
2022-11-10T15:42:26.106Z,84.38
2022-11-10T15:44:20.726Z,72.22
2022-11-10T15:46:18.151Z,64.22
2022-11-10T15:48:13.821Z,162.57
2022-11-10T15:50:13.443Z,69.57
2022-11-10T15:52:12.989Z,57.90
2022-11-10T15:54:04.729Z,59.08
2022-11-10T15:55:56.605Z,51.28
2022-11-10T15:57:49.139Z,78.53
2022-11-10T15:59:41.525Z,83.75
2022-11-10T16:01:33.930Z,102.75
2022-11-10T16:03:27.920Z,102.18
2022-11-10T16:05:21.200Z,82.18
2022-11-10T16:07:13.330Z,98.55
2022-11-10T16:09:06.474Z,150.52
2022-11-10T16:10:58.842Z,135.73
2022-11-10T16:12:50.533Z,118.72
2022-11-10T16:14:43.332Z,120.00
2022-11-10T16:16:34.962Z,231.05
2022-11-10T16:18:29.398Z,170.07
2022-11-10T16:20:22.657Z,145.07
2022-11-10T16:22:15.286Z,138.52
2022-11-10T16:24:07.633Z,116.80
2022-11-10T16:25:59.856Z,117.25
2022-11-10T16:27:51.959Z,102.60
2022-11-10T16:29:44.312Z,92.70
2022-11-10T16:31:37.239Z,79.43
2022-11-10T16:33:29.397Z,100.57
2022-11-10T16:35:23.533Z,69.85
2022-11-10T16:37:15.296Z,87.60
2022-11-10T16:39:13.013Z,63.80
2022-11-10T16:41:05.878Z,89.10
2022-11-10T16:42:57.859Z,87.30
2022-11-10T16:44:49.419Z,69.35
2022-11-10T16:46:43.699Z,86.28
2022-11-10T16:48:37.825Z,126.55
2022-11-10T16:50:34.116Z,118.82
2022-11-10T16:52:26.482Z,174.88
2022-11-10T16:54:19.104Z,138.75
2022-11-10T16:56:15.390Z,83.50
2022-11-10T16:58:07.207Z,82.65
2022-11-10T16:59:59.562Z,84.22
2022-11-10T17:01:51.522Z,56.40
2022-11-10T17:03:46.660Z,56.38
2022-11-10T17:05:40.402Z,64.22
2022-11-10T17:07:34.848Z,54.83
2022-11-10T17:09:27.246Z,45.72
2022-11-10T17:11:19.656Z,55.95
2022-11-10T17:13:12.231Z,51.08
2022-11-10T17:15:04.059Z,48.90
2022-11-10T17:16:58.698Z,46.75
2022-11-10T17:18:51.239Z,71.90
2022-11-10T17:20:48.325Z,56.42
2022-11-10T17:22:40.705Z,46.05
2022-11-10T17:24:32.799Z,62.03
2022-11-10T17:26:24.670Z,67.03
2022-11-10T17:28:19.313Z,69.03
2022-11-10T17:30:13.291Z,62.45
2022-11-10T17:32:05.451Z,62.45
2022-11-10T17:33:57.512Z,59.75
2022-11-10T17:35:53.459Z,40.42
2022-11-10T17:37:49.447Z,38.85
2022-11-10T17:39:42.124Z,45.28
2022-11-10T17:41:35.258Z,37.58
2022-11-10T17:43:26.967Z,43.05
2022-11-10T17:45:21.563Z,43.97
2022-11-10T17:47:13.813Z,45.15
2022-11-10T17:49:05.707Z,41.15
2022-11-10T17:50:59.238Z,43.25
2022-11-10T17:52:51.402Z,47.92
2022-11-10T17:54:43.390Z,43.03
2022-11-10T17:56:35.734Z,47.63
2022-11-10T17:58:27.610Z,42.53
2022-11-10T18:00:20.374Z,44.83
2022-11-10T18:02:13.100Z,44.42
2022-11-10T18:04:05.271Z,43.72
2022-11-10T18:05:58.763Z,39.97
2022-11-10T18:07:52.097Z,44.72
2022-11-10T18:09:44.136Z,51.70
2022-11-10T18:11:35.615Z,43.22
2022-11-10T18:13:28.037Z,44.88
2022-11-10T18:15:20.527Z,41.42
2022-11-10T18:17:12.503Z,43.88
2022-11-10T18:19:06.039Z,44.00
2022-11-10T18:20:59.333Z,45.92
2022-11-10T18:22:51.308Z,45.47
2022-11-10T18:24:43.811Z,35.28
2022-11-10T18:26:36.009Z,41.78
2022-11-10T18:28:28.095Z,43.58
2022-11-10T18:30:20.629Z,34.78
2022-11-10T18:32:12.593Z,42.08
2022-11-10T18:34:04.525Z,42.72
2022-11-10T18:36:01.422Z,52.88
2022-11-10T18:37:53.084Z,49.35
2022-11-10T18:39:45.304Z,45.67
2022-11-10T18:41:52.766Z,48.60
2022-11-10T18:43:44.717Z,63.30
2022-11-10T18:45:37.313Z,69.05
2022-11-10T18:47:30.564Z,67.78
2022-11-10T18:49:22.734Z,48.78
2022-11-10T18:51:17.017Z,44.30
2022-11-10T18:53:09.858Z,50.05
2022-11-10T18:55:01.878Z,61.78
2022-11-10T18:56:53.770Z,39.47
2022-11-10T18:58:45.694Z,35.03
2022-11-10T19:00:37.294Z,37.75
2022-11-10T19:02:29.160Z,34.33
2022-11-10T19:04:21.056Z,40.42
2022-11-10T19:06:14.103Z,40.95
2022-11-10T19:08:08.173Z,44.35
2022-11-10T19:10:00.678Z,38.67
2022-11-10T19:11:52.645Z,41.75
2022-11-10T19:13:45.925Z,55.03
2022-11-10T19:15:41.570Z,61.17
2022-11-10T19:17:33.798Z,56.45
2022-11-10T19:19:29.702Z,48.20
2022-11-10T19:21:23.840Z,44.33
2022-11-10T19:23:17.789Z,47.22
2022-11-10T19:25:10.075Z,52.22
2022-11-10T19:27:03.016Z,46.35
2022-11-10T19:28:55.563Z,40.97
2022-11-10T19:30:47.571Z,37.25
2022-11-10T19:32:42.857Z,43.42
2022-11-10T19:34:34.640Z,38.63
2022-11-10T19:36:28.241Z,56.13
2022-11-10T19:38:21.819Z,42.80
2022-11-10T19:40:23.506Z,44.75
2022-11-10T19:42:15.670Z,41.72
2022-11-10T19:44:07.582Z,39.30
2022-11-10T19:46:03.076Z,36.53
2022-11-10T19:47:57.247Z,40.28
2022-11-10T19:49:50.105Z,43.33
2022-11-10T19:51:42.166Z,38.60
2022-11-10T19:53:35.629Z,42.03
2022-11-10T19:55:27.669Z,41.15
2022-11-10T19:57:19.685Z,42.72
2022-11-10T19:59:13.035Z,44.70
2022-11-10T20:01:06.010Z,40.50
2022-11-10T20:02:57.721Z,42.22
2022-11-10T20:05:06.534Z,45.20
2022-11-10T20:07:12.110Z,40.75
2022-11-10T20:09:05.442Z,35.33
2022-11-10T20:11:00.269Z,40.33
2022-11-10T20:12:52.206Z,33.67
2022-11-10T20:14:43.711Z,40.78
2022-11-10T20:16:35.798Z,37.42
2022-11-10T20:18:28.118Z,40.40
2022-11-10T20:20:20.657Z,35.03
2022-11-10T20:22:13.184Z,41.17
2022-11-10T20:24:06.747Z,38.40
2022-11-10T20:26:09.910Z,44.72
2022-11-10T20:28:03.663Z,46.35
2022-11-10T20:29:55.800Z,36.80
2022-11-10T20:31:47.725Z,34.38
2022-11-10T20:33:40.291Z,37.97
2022-11-10T20:35:33.720Z,39.15
2022-11-10T20:37:25.032Z,39.42
2022-11-10T20:39:18.888Z,37.63
2022-11-10T20:41:13.524Z,37.78
2022-11-10T20:43:05.723Z,38.95
2022-11-10T20:44:57.308Z,34.88
2022-11-10T20:46:54.467Z,38.63
2022-11-10T20:48:47.844Z,36.55
2022-11-10T20:50:41.438Z,33.35
2022-11-10T20:52:34.277Z,36.55
2022-11-10T20:54:27.332Z,34.10
2022-11-10T20:56:19.108Z,38.25
2022-11-10T20:58:11.720Z,37.10
2022-11-10T21:00:03.476Z,35.55
2022-11-10T21:01:55.435Z,34.42
2022-11-10T21:03:47.676Z,41.47
2022-11-10T21:05:39.731Z,43.65
2022-11-10T21:07:31.874Z,34.95
2022-11-10T21:09:24.212Z,33.70
2022-11-10T21:11:37.037Z,35.88
2022-11-10T21:13:28.687Z,39.40
2022-11-10T21:15:21.610Z,36.05
2022-11-10T21:17:13.264Z,35.38
2022-11-10T21:19:05.020Z,33.88
2022-11-10T21:20:57.004Z,41.42
2022-11-10T21:22:48.898Z,49.85
2022-11-10T21:24:41.000Z,41.25
2022-11-10T21:26:35.824Z,52.53
2022-11-10T21:28:28.103Z,48.97
2022-11-10T21:30:23.989Z,49.53
2022-11-10T21:32:15.658Z,45.17
2022-11-10T21:34:07.627Z,40.35
2022-11-10T21:36:06.553Z,42.63
2022-11-10T21:37:58.336Z,42.63
2022-11-10T21:39:50.770Z,51.35
2022-11-10T21:41:44.348Z,39.47
2022-11-10T21:43:38.709Z,39.60
2022-11-10T21:45:30.543Z,39.65
2022-11-10T21:47:22.218Z,42.78
2022-11-10T21:49:14.507Z,42.88
2022-11-10T21:51:08.811Z,43.78
2022-11-10T21:53:00.861Z,46.05
2022-11-10T21:54:52.729Z,46.63
2022-11-10T21:56:45.954Z,50.42
2022-11-10T21:58:38.633Z,45.35
2022-11-10T22:00:30.539Z,37.10
2022-11-10T22:02:22.584Z,39.90
2022-11-10T22:04:15.544Z,43.47
2022-11-10T22:06:09.085Z,44.50
2022-11-10T22:08:00.567Z,46.05
2022-11-10T22:10:10.617Z,45.00
2022-11-10T22:12:21.407Z,45.85
2022-11-10T22:14:31.097Z,48.30
2022-11-10T22:16:44.620Z,46.15
2022-11-10T22:18:41.345Z,48.13
2022-11-10T22:20:33.047Z,46.00
2022-11-10T22:22:25.086Z,45.33
2022-11-10T22:24:26.837Z,44.75
2022-11-10T22:26:19.116Z,38.50
2022-11-10T22:28:12.338Z,42.33
2022-11-10T22:30:03.907Z,40.65
2022-11-10T22:31:55.846Z,39.17
2022-11-10T22:33:47.322Z,38.65
2022-11-10T22:35:44.816Z,39.58
2022-11-10T22:37:36.349Z,40.90
2022-11-10T22:39:48.695Z,37.10
2022-11-10T22:41:58.037Z,40.97
2022-11-10T22:44:05.364Z,37.72
2022-11-10T22:45:57.452Z,41.13
2022-11-10T22:48:06.990Z,48.40
2022-11-10T22:49:58.716Z,43.53
2022-11-10T22:51:52.470Z,41.10
2022-11-10T22:53:44.366Z,38.88
2022-11-10T22:55:36.177Z,38.88
2022-11-10T22:57:27.662Z,36.38
2022-11-10T22:59:21.216Z,41.95
2022-11-10T23:01:14.388Z,40.33
2022-11-10T23:03:06.573Z,45.85
2022-11-10T23:04:58.639Z,37.67
2022-11-10T23:06:50.301Z,40.85
2022-11-10T23:08:42.506Z,42.05
2022-11-10T23:10:34.615Z,41.15
2022-11-10T23:12:26.188Z,45.28
2022-11-10T23:14:18.395Z,39.95
2022-11-10T23:16:14.215Z,41.00
2022-11-10T23:18:07.010Z,38.25
2022-11-10T23:19:59.129Z,41.28
2022-11-10T23:21:50.770Z,39.03
2022-11-10T23:23:43.575Z,47.05
2022-11-10T23:25:35.347Z,43.83
2022-11-10T23:27:26.929Z,37.42
2022-11-10T23:29:18.939Z,39.80
2022-11-10T23:31:14.399Z,39.05
2022-11-10T23:33:06.069Z,37.10
2022-11-10T23:34:57.935Z,40.05
2022-11-10T23:36:50.307Z,39.13
2022-11-10T23:38:43.277Z,42.80
2022-11-10T23:40:35.144Z,44.28
2022-11-10T23:42:28.756Z,50.22
2022-11-10T23:44:20.705Z,44.20
2022-11-10T23:46:14.362Z,55.08
2022-11-10T23:48:07.112Z,52.08
2022-11-10T23:49:59.332Z,51.67
2022-11-10T23:51:51.201Z,50.13
2022-11-10T23:53:43.821Z,42.40
2022-11-10T23:55:36.088Z,39.50
2022-11-10T23:57:27.937Z,45.90
2022-11-10T23:59:20.064Z,42.15
